Time;durP1;ratioP1;P1;durP2;ratioP2;P2;SDS_P1;SDS_P2;PMS_P1;PMS_P2;Temp;Humidity;BMP_temperature;BMP_pressure;BME280_temperature;BME280_humidity;BME280_pressure;Samples;Min_cycle;Max_cycle;Signal;HPM_P1;HPM_P2
2023/03/09 00:01:30;;;;;;;26.37;13.33;;;4.50;99.90;;;;;;5025643;23;20207;-92
2023/03/09 00:03:56;;;;;;;24.77;13.23;;;4.40;99.90;;;;;;5048801;23;20146;-95
2023/03/09 00:06:19;;;;;;;26.33;13.10;;;4.40;99.90;;;;;;4996504;23;20151;-93
2023/03/09 00:09:09;;;;;;;25.57;13.50;;;4.60;99.90;;;;;;4949586;23;20289;-92
2023/03/09 00:12:10;;;;;;;30.03;13.83;;;5.40;99.90;;;;;;4982807;23;20269;-92
2023/03/09 00:14:39;;;;;;;;;;;;;;;;;;;;;
2023/03/09 00:17:16;;;;;;;29.93;13.90;;;5.50;99.90;;;;;;4996843;23;20155;-92
2023/03/09 00:20:14;;;;;;;28.33;13.30;;;5.40;99.90;;;;;;4976694;23;20627;-94
2023/03/09 00:23:19;;;;;;;;;;;;;;;;;;;;;
2023/03/09 00:25:43;;;;;;;24.67;11.90;;;5.00;99.90;;;;;;4997640;23;20165;-94
2023/03/09 00:28:35;;;;;;;23.10;12.20;;;4.90;99.90;;;;;;4972586;23;20171;-92
2023/03/09 00:36:50;;;;;;;26.73;14.10;;;4.60;99.90;;;;;;4972558;23;20164;-92
2023/03/09 00:39:19;;;;;;;33.60;13.17;;;4.60;99.90;;;;;;4973844;23;20156;-93
2023/03/09 00:41:39;;;;;;;30.27;15.70;;;4.80;99.90;;;;;;4950168;23;20181;-94
2023/03/09 00:43:52;;;;;;;33.17;16.17;;;5.20;99.90;;;;;;4990909;23;20166;-94
2023/03/09 00:46:11;;;;;;;40.00;18.07;;;5.60;99.90;;;;;;5022070;23;20190;-93
2023/03/09 00:48:45;;;;;;;37.33;17.80;;;5.90;99.90;;;;;;5022508;23;20565;-92
2023/03/09 00:50:53;;;;;;;48.70;19.97;;;6.50;99.90;;;;;;5001681;23;20187;-92
2023/03/09 00:53:10;;;;;;;;;;;;;;;;;;;;;
2023/03/09 00:55:21;;;;;;;54.17;21.20;;;6.20;99.90;;;;;;5042847;23;20158;-92
2023/03/09 00:57:30;;;;;;;59.03;23.50;;;6.10;99.90;;;;;;5021069;23;20166;-95
2023/03/09 00:59:34;;;;;;;68.37;26.10;;;6.00;99.90;;;;;;5022804;23;20155;-93
2023/03/09 01:01:52;;;;;;;64.73;25.87;;;5.80;99.90;;;;;;5022581;23;20174;-91
2023/03/09 01:03:53;;;;;;;81.53;27.77;;;5.50;99.90;;;;;;5022390;23;20158;-93
2023/03/09 01:08:45;;;;;;;76.73;26.10;;;5.20;99.90;;;;;;5042334;23;20165;-91
2023/03/09 01:10:48;;;;;;;81.13;27.53;;;5.20;99.90;;;;;;5021467;23;20159;-93
2023/03/09 01:12:57;;;;;;;87.63;27.83;;;4.90;99.90;;;;;;5023417;23;20151;-94
2023/03/09 01:15:18;;;;;;;93.27;29.30;;;5.30;99.90;;;;;;5024342;23;20222;-95
2023/03/09 01:17:31;;;;;;;90.37;30.03;;;5.60;99.90;;;;;;5023191;23;20234;-91
2023/03/09 01:19:59;;;;;;;94.70;30.80;;;5.70;99.90;;;;;;5046612;23;20164;-92
2023/03/09 01:22:08;;;;;;;93.40;31.10;;;5.70;99.90;;;;;;5022240;23;20246;-94
2023/03/09 01:24:13;;;;;;;101.60;32.10;;;5.70;99.90;;;;;;5046531;23;20550;-92
2023/03/09 01:26:18;;;;;;;111.80;33.40;;;5.70;99.90;;;;;;5022023;23;20206;-92
2023/03/09 01:28:22;;;;;;;116.00;34.40;;;5.70;99.90;;;;;;5022152;23;20233;-91
2023/03/09 01:30:35;;;;;;;118.50;34.30;;;5.60;99.90;;;;;;5020166;23;20190;-94
2023/03/09 01:32:41;;;;;;;113.60;32.60;;;5.50;99.90;;;;;;5022772;23;20602;-93
2023/03/09 01:34:42;;;;;;;110.70;32.80;;;5.20;99.90;;;;;;5020711;23;20155;-93
2023/03/09 01:36:51;;;;;;;128.13;34.60;;;4.80;99.90;;;;;;5046236;23;20492;-93
2023/03/09 01:38:52;;;;;;;122.30;33.20;;;4.60;99.90;;;;;;5022378;23;20858;-92
2023/03/09 01:40:57;;;;;;;124.53;34.10;;;5.00;99.90;;;;;;5022639;23;20167;-90
2023/03/09 01:43:24;;;;;;;132.13;35.70;;;5.40;99.90;;;;;;5022942;23;20165;-92
2023/03/09 01:45:30;;;;;;;134.20;35.10;;;5.50;99.90;;;;;;5022812;23;20214;-93
2023/03/09 01:47:37;;;;;;;125.73;34.00;;;5.40;99.90;;;;;;5023950;23;20245;-93
2023/03/09 01:49:51;;;;;;;131.10;34.47;;;5.50;99.90;;;;;;5021671;23;20206;-91
2023/03/09 01:52:04;;;;;;;137.33;34.17;;;5.90;99.90;;;;;;5023114;23;20545;-95
2023/03/09 01:54:13;;;;;;;123.37;34.70;;;5.80;99.90;;;;;;5022153;23;20155;-94
2023/03/09 01:56:27;;;;;;;130.63;35.47;;;6.00;99.90;;;;;;5023058;23;20159;-93
2023/03/09 01:58:30;;;;;;;135.13;35.37;;;5.70;99.90;;;;;;5022138;23;20421;-91
2023/03/09 02:00:40;;;;;;;143.60;34.57;;;5.90;99.90;;;;;;5022408;23;20166;-94
2023/03/09 02:02:58;;;;;;;146.63;34.43;;;5.60;99.90;;;;;;5022741;23;20213;-93
2023/03/09 02:05:28;;;;;;;142.60;33.90;;;5.50;99.90;;;;;;5023620;23;20162;-94
2023/03/09 02:07:37;;;;;;;134.40;33.07;;;5.00;99.90;;;;;;5046571;23;20178;-91
2023/03/09 02:10:01;;;;;;;119.47;31.33;;;4.60;99.90;;;;;;5022696;23;20201;-92
2023/03/09 02:12:26;;;;;;;;;;;;;;;;;;;;;
2023/03/09 02:14:50;;;;;;;108.50;29.57;;;4.30;99.90;;;;;;5046352;23;20151;-94
2023/03/09 02:17:25;;;;;;;103.20;29.77;;;4.30;99.90;;;;;;5024395;23;20506;-91
2023/03/09 02:19:59;;;;;;;104.03;29.40;;;4.10;99.90;;;;;;5071422;23;20149;-94
2023/03/09 02:22:59;;;;;;;104.17;29.80;;;4.10;99.90;;;;;;5045271;23;20189;-93
2023/03/09 02:25:32;;;;;;;101.50;30.10;;;4.10;99.90;;;;;;5045520;23;20190;-91
2023/03/09 02:27:47;;;;;;;89.73;29.00;;;4.30;99.90;;;;;;5048965;23;20162;-92
2023/03/09 02:29:49;;;;;;;96.30;28.53;;;4.90;99.90;;;;;;5022376;23;20190;-92
2023/03/09 02:32:25;;;;;;;;;;;;;;;;;;;;;
2023/03/09 02:42:04;;;;;;;;;;;;;;;;;;;;;
2023/03/09 02:45:39;;;;;;;87.60;25.87;;;4.70;99.90;;;;;;4950639;24;20218;-94
2023/03/09 02:48:52;;;;;;;;;;;;;;;;;;;;;
2023/03/09 02:54:54;;;;;;;95.93;28.43;;;3.80;99.90;;;;;;4870975;24;20209;-92
2023/03/09 02:57:25;;;;;;;89.17;27.80;;;4.70;99.90;;;;;;5016970;23;20166;-95
2023/03/09 03:00:40;;;;;;;;;;;;;;;;;;;;;
2023/03/09 03:15:55;;;;;;;100.50;27.80;;;5.10;99.90;;;;;;4809765;24;20181;-93
2023/03/09 03:19:37;;;;;;;;;;;;;;;;;;;;;
2023/03/09 04:11:07;;;;;;;;;;;;;;;;;;;;;
2023/03/09 04:13:38;;;;;;;80.33;25.43;;;5.80;99.90;;;;;;5080843;23;20247;-95
2023/03/09 04:16:16;;;;;;;93.90;25.17;;;6.00;99.90;;;;;;5046803;23;20169;-95
2023/03/09 04:18:33;;;;;;;93.23;26.40;;;5.90;99.90;;;;;;5047353;23;20169;-95
2023/03/09 04:21:29;;;;;;;83.43;25.20;;;5.90;99.90;;;;;;5072565;23;20639;-95
2023/03/09 04:23:49;;;;;;;;;;;;;;;;;;;;;
2023/03/09 04:26:11;;;;;;;106.43;27.00;;;5.70;99.90;;;;;;5069511;23;20229;-93
2023/03/09 04:29:17;;;;;;;110.67;28.43;;;5.50;99.90;;;;;;5059225;23;20163;-93
2023/03/09 04:32:00;;;;;;;106.60;28.37;;;5.30;99.90;;;;;;5073320;23;20181;-96
2023/03/09 04:37:51;;;;;;;119.27;30.57;;;5.20;99.90;;;;;;5065952;23;20168;-94
2023/03/09 04:40:04;;;;;;;111.03;28.47;;;5.20;99.90;;;;;;5047409;23;20177;-95
2023/03/09 04:47:52;;;;;;;109.93;28.60;;;5.20;99.90;;;;;;5024517;23;20185;-94
2023/03/09 04:51:13;;;;;;;98.73;24.90;;;5.20;99.90;;;;;;5072211;23;20217;-93
2023/03/09 05:03:54;;;;;;;136.33;30.83;;;4.80;99.90;;;;;;5036297;23;20204;-92
2023/03/09 05:08:52;;;;;;;115.83;31.03;;;5.30;99.90;;;;;;5097519;23;20183;-92
2023/03/09 05:14:08;;;;;;;105.13;27.50;;;4.80;99.90;;;;;;5075854;23;20539;-95
2023/03/09 05:16:12;;;;;;;110.00;27.90;;;5.40;99.90;;;;;;5046815;23;20530;-92
2023/03/09 05:18:41;;;;;;;101.87;26.17;;;5.70;99.90;;;;;;5046786;23;20161;-94
2023/03/09 05:21:17;;;;;;;95.67;26.63;;;5.70;99.90;;;;;;5049505;23;20178;-93
2023/03/09 05:23:42;;;;;;;92.63;26.13;;;5.30;99.90;;;;;;5073397;23;20476;-93
2023/03/09 05:26:21;;;;;;;99.43;26.10;;;5.20;99.90;;;;;;5047124;23;20214;-96
2023/03/09 05:28:40;;;;;;;105.17;25.67;;;5.40;99.90;;;;;;5070474;23;20608;-93
2023/03/09 05:30:54;;;;;;;96.40;26.10;;;5.80;99.90;;;;;;5048027;23;20170;-93
2023/03/09 05:33:19;;;;;;;104.43;25.53;;;5.90;99.90;;;;;;5052225;23;20566;-93
2023/03/09 05:35:50;;;;;;;94.23;25.63;;;6.00;99.90;;;;;;5075974;23;20191;-94
2023/03/09 05:38:01;;;;;;;112.53;25.97;;;6.00;99.90;;;;;;5049844;23;20146;-94
2023/03/09 05:40:22;;;;;;;95.87;25.60;;;6.00;99.90;;;;;;5049032;23;20565;-94
2023/03/09 05:42:26;;;;;;;102.90;25.00;;;5.80;99.90;;;;;;5048545;23;20174;-92
2023/03/09 05:44:39;;;;;;;98.93;25.20;;;5.70;99.90;;;;;;5047449;23;20177;-93
2023/03/09 05:46:45;;;;;;;95.47;24.70;;;5.50;99.90;;;;;;5047790;23;20150;-94
2023/03/09 05:48:56;;;;;;;104.20;26.10;;;5.50;99.90;;;;;;5050074;23;20241;-93
2023/03/09 05:51:21;;;;;;;96.53;24.70;;;5.40;99.90;;;;;;5048011;23;20178;-94
2023/03/09 05:54:04;;;;;;;99.13;25.30;;;5.40;99.90;;;;;;5049001;23;20170;-93
2023/03/09 05:56:11;;;;;;;;;;;;;;;;;;;;;
2023/03/09 05:58:21;;;;;;;88.67;23.77;;;5.40;99.90;;;;;;5071874;23;20161;-93
2023/03/09 06:00:26;;;;;;;89.03;22.47;;;5.40;99.90;;;;;;5047497;23;20192;-93
2023/03/09 06:02:41;;;;;;;99.50;24.23;;;5.20;99.90;;;;;;5053489;23;20154;-96
2023/03/09 06:05:13;;;;;;;107.37;24.00;;;5.30;99.90;;;;;;5052730;23;20158;-93
2023/03/09 06:07:20;;;;;;;85.40;22.57;;;5.10;99.90;;;;;;5053759;23;20158;-92
2023/03/09 06:10:08;;;;;;;94.60;22.67;;;4.90;99.90;;;;;;5056818;23;20184;-93
2023/03/09 06:13:20;;;;;;;;;;;;;;;;;;;;;
2023/03/09 06:16:28;;;;;;;89.30;22.57;;;5.30;99.90;;;;;;5035728;23;20223;-93
2023/03/09 06:19:59;;;;;;;90.50;22.60;;;4.90;99.90;;;;;;5009724;23;20523;-94
2023/03/09 06:22:45;;;;;;;85.37;21.97;;;5.20;99.90;;;;;;5036817;23;20262;-94
2023/03/09 06:25:11;;;;;;;99.50;23.03;;;5.40;99.90;;;;;;5065080;23;20154;-94
2023/03/09 06:27:21;;;;;;;117.60;31.77;;;5.60;99.90;;;;;;5057894;23;20143;-93
2023/03/09 06:30:28;;;;;;;;;;;;;;;;;;;;;
2023/03/09 06:33:26;;;;;;;94.83;23.43;;;5.70;99.90;;;;;;5079019;23;20616;-93
2023/03/09 06:36:19;;;;;;;;;;;;;;;;;;;;;
2023/03/09 06:43:30;;;;;;;;;;;;;;;;;;;;;
2023/03/09 06:47:03;;;;;;;;;;;;;;;;;;;;;
2023/03/09 06:49:52;;;;;;;80.07;21.93;;;5.00;99.90;;;;;;5035934;23;20205;-93
2023/03/09 06:55:38;;;;;;;86.13;22.33;;;5.10;99.90;;;;;;4999054;23;20152;-93
2023/03/09 06:58:30;;;;;;;86.10;21.40;;;5.40;99.90;;;;;;4990667;23;20163;-93
2023/03/09 07:01:37;;;;;;;87.67;21.13;;;5.00;99.90;;;;;;4966978;23;20183;-93
2023/03/09 07:03:59;;;;;;;86.87;21.80;;;5.10;99.90;;;;;;5050736;23;20634;-94
2023/03/09 07:06:56;;;;;;;87.73;22.60;;;5.20;99.90;;;;;;5029021;23;20157;-93
2023/03/09 07:10:08;;;;;;;88.07;23.20;;;5.40;99.90;;;;;;5097170;23;20184;-92
2023/03/09 07:13:25;;;;;;;95.90;23.97;;;5.20;99.90;;;;;;5062460;23;20167;-92
2023/03/09 07:16:39;;;;;;;90.87;22.80;;;5.90;99.90;;;;;;5047442;23;20141;-92
2023/03/09 07:19:38;;;;;;;87.87;22.97;;;6.00;99.90;;;;;;5048699;23;20226;-93
2023/03/09 07:22:31;;;;;;;93.47;23.03;;;6.00;99.90;;;;;;5055320;23;20294;-95
2023/03/09 07:24:41;;;;;;;106.07;24.10;;;6.00;99.90;;;;;;5051839;23;20166;-94
2023/03/09 07:27:31;;;;;;;77.97;22.43;;;5.70;99.90;;;;;;5079130;23;20169;-93
2023/03/09 07:30:31;;;;;;;91.57;21.93;;;5.50;99.90;;;;;;5098420;23;20295;-93
2023/03/09 07:33:01;;;;;;;96.77;23.00;;;5.30;99.90;;;;;;5053041;23;20162;-93
2023/03/09 07:35:54;;;;;;;82.17;22.17;;;5.30;99.90;;;;;;5086004;23;20156;-93
2023/03/09 07:38:37;;;;;;;;;;;;;;;;;;;;;
2023/03/09 07:41:16;;;;;;;70.50;21.37;;;5.50;99.90;;;;;;5095750;23;20213;-93
2023/03/09 07:43:30;;;;;;;74.90;21.87;;;5.60;99.90;;;;;;5076471;23;20162;-93
2023/03/09 07:46:04;;;;;;;71.87;21.33;;;5.70;99.90;;;;;;5058119;23;20162;-94
2023/03/09 07:48:29;;;;;;;79.50;21.70;;;5.80;99.90;;;;;;5076794;23;20157;-93
2023/03/09 07:50:42;;;;;;;99.03;21.33;;;6.00;99.90;;;;;;5098457;23;20183;-94
2023/03/09 07:53:03;;;;;;;74.43;20.40;;;6.00;99.90;;;;;;5076961;23;20228;-93
2023/03/09 07:55:22;;;;;;;52.97;19.90;;;6.00;99.90;;;;;;5054131;23;20252;-94
2023/03/09 07:57:32;;;;;;;61.07;20.03;;;6.00;99.90;;;;;;5070410;23;20161;-93
2023/03/09 07:59:54;;;;;;;56.30;19.87;;;5.80;99.90;;;;;;5071755;23;20169;-93
2023/03/09 08:02:19;;;;;;;58.37;18.20;;;5.90;99.90;;;;;;5080357;23;20161;-93
2023/03/09 08:04:30;;;;;;;53.17;18.33;;;5.90;99.90;;;;;;5071293;23;20198;-94
2023/03/09 08:07:22;;;;;;;58.90;18.20;;;5.90;99.90;;;;;;5099143;23;20149;-93
2023/03/09 08:09:52;;;;;;;50.73;18.00;;;6.00;99.90;;;;;;5055687;23;20205;-92
2023/03/09 08:12:45;;;;;;;44.17;18.03;;;6.10;99.90;;;;;;5076428;23;20184;-93
2023/03/09 08:14:49;;;;;;;51.30;19.13;;;6.20;99.90;;;;;;5049928;23;20176;-93
2023/03/09 08:17:04;;;;;;;63.17;19.17;;;6.20;99.90;;;;;;5053422;23;20142;-93
2023/03/09 08:19:24;;;;;;;62.93;20.23;;;6.30;99.90;;;;;;5079247;23;20154;-94
2023/03/09 08:21:33;;;;;;;70.40;20.90;;;6.10;99.90;;;;;;5075343;23;20176;-92
2023/03/09 08:23:42;;;;;;;54.60;19.97;;;6.20;99.90;;;;;;5051006;23;20216;-93
2023/03/09 08:25:55;;;;;;;58.17;20.23;;;6.20;99.90;;;;;;5074998;23;20201;-93
2023/03/09 08:27:56;;;;;;;58.17;21.20;;;6.20;99.90;;;;;;5050946;23;20501;-92
2023/03/09 08:30:09;;;;;;;59.77;19.93;;;6.30;99.90;;;;;;5049219;23;20529;-93
2023/03/09 08:32:18;;;;;;;57.13;20.53;;;6.40;99.90;;;;;;5051811;23;20258;-93
2023/03/09 08:34:42;;;;;;;59.57;20.53;;;6.50;99.90;;;;;;5051036;23;20543;-93
2023/03/09 08:36:45;;;;;;;64.30;20.00;;;6.50;99.90;;;;;;5073854;23;20161;-93
2023/03/09 08:38:51;;;;;;;59.67;20.70;;;6.60;99.90;;;;;;5071652;23;20608;-94
2023/03/09 08:41:00;;;;;;;49.77;20.57;;;6.70;99.90;;;;;;5050862;23;20155;-93
2023/03/09 08:43:19;;;;;;;54.47;20.90;;;6.70;99.90;;;;;;5077140;23;20244;-94
2023/03/09 08:45:30;;;;;;;67.97;20.67;;;6.80;99.90;;;;;;5074780;23;20146;-92
2023/03/09 08:47:57;;;;;;;56.33;21.27;;;6.90;99.90;;;;;;5075236;23;20157;-92
2023/03/09 08:50:09;;;;;;;54.40;18.80;;;7.00;99.90;;;;;;5054390;23;20727;-92
2023/03/09 08:52:34;;;;;;;40.17;17.17;;;7.00;99.90;;;;;;5076404;23;20285;-93
2023/03/09 08:54:49;;;;;;;49.45;18.50;;;7.00;99.90;;;;;;5049840;23;20166;-92
2023/03/09 08:56:53;;;;;;;47.37;18.47;;;7.20;99.90;;;;;;5054131;23;20177;-94
2023/03/09 08:59:05;;;;;;;42.80;18.23;;;7.30;99.90;;;;;;5076883;23;20608;-93
2023/03/09 09:01:09;;;;;;;42.07;17.60;;;7.40;99.90;;;;;;5047580;23;20229;-93
2023/03/09 09:03:15;;;;;;;40.17;17.37;;;7.50;99.90;;;;;;5074693;23;20137;-92
2023/03/09 09:05:15;;;;;;;40.23;17.57;;;7.60;99.90;;;;;;5077456;23;20165;-93
2023/03/09 09:07:22;;;;;;;42.17;18.23;;;7.90;99.90;;;;;;5057789;23;20158;-93
2023/03/09 09:09:38;;;;;;;42.17;17.65;;;7.90;99.90;;;;;;5054117;23;20250;-93
2023/03/09 09:11:48;;;;;;;48.37;18.20;;;7.80;99.90;;;;;;5081734;23;20196;-93
2023/03/09 09:14:14;;;;;;;45.30;19.15;;;7.90;99.90;;;;;;5086583;23;20177;-92
2023/03/09 09:16:35;;;;;;;40.80;17.88;;;8.10;99.90;;;;;;5094257;23;20153;-93
2023/03/09 09:18:44;;;;;;;39.50;17.67;;;8.10;99.90;;;;;;5074814;23;20236;-92
2023/03/09 09:20:47;;;;;;;40.63;18.33;;;8.20;99.90;;;;;;5073059;23;20154;-93
2023/03/09 09:23:06;;;;;;;47.95;19.30;;;8.30;99.90;;;;;;5076625;23;20201;-94
2023/03/09 09:25:21;;;;;;;47.15;18.15;;;8.30;99.90;;;;;;5101405;23;20203;-93
2023/03/09 09:27:30;;;;;;;44.15;19.33;;;8.30;99.90;;;;;;5078722;23;20162;-93
2023/03/09 09:29:36;;;;;;;46.87;19.57;;;8.20;99.90;;;;;;5074435;23;20795;-94
2023/03/09 09:31:54;;;;;;;45.80;19.63;;;8.40;99.90;;;;;;5076153;23;20178;-95
2023/03/09 09:34:18;;;;;;;51.08;20.13;;;8.60;99.90;;;;;;5099567;23;20153;-93
2023/03/09 09:36:42;;;;;;;45.95;20.17;;;8.60;99.90;;;;;;5072306;23;20158;-93
2023/03/09 09:38:45;;;;;;;44.90;19.85;;;8.70;99.90;;;;;;5073573;23;20146;-93
2023/03/09 09:40:47;;;;;;;43.65;20.10;;;8.60;99.90;;;;;;5049489;23;20166;-94
2023/03/09 09:42:52;;;;;;;47.63;20.00;;;8.40;99.90;;;;;;5073795;23;20237;-93
2023/03/09 09:44:57;;;;;;;42.53;18.83;;;8.40;99.90;;;;;;5052542;23;20534;-93
2023/03/09 09:47:18;;;;;;;45.78;19.77;;;8.50;99.90;;;;;;5075831;23;20149;-93
2023/03/09 09:49:59;;;;;;;37.30;19.20;;;8.40;99.90;;;;;;5079022;23;20201;-93
2023/03/09 09:52:26;;;;;;;40.55;19.38;;;8.40;99.90;;;;;;5076667;23;20188;-94
2023/03/09 09:54:28;;;;;;;47.63;20.20;;;8.40;99.90;;;;;;5074577;23;20550;-94
2023/03/09 09:56:55;;;;;;;42.65;18.48;;;8.40;99.90;;;;;;5074173;23;20142;-94
2023/03/09 09:59:05;;;;;;;42.40;18.27;;;8.50;99.90;;;;;;5074834;23;20204;-94
2023/03/09 10:01:27;;;;;;;40.97;18.73;;;8.40;99.90;;;;;;5052329;23;20307;-94
2023/03/09 10:03:57;;;;;;;36.75;17.95;;;8.50;99.90;;;;;;5077666;23;20172;-94
2023/03/09 10:06:09;;;;;;;41.38;19.90;;;8.60;99.90;;;;;;5049403;23;20162;-93
2023/03/09 10:08:41;;;;;;;42.42;19.58;;;8.60;99.90;;;;;;5081905;23;20145;-93
2023/03/09 10:10:58;;;;;;;39.88;19.13;;;8.80;99.90;;;;;;5053307;23;20277;-94
2023/03/09 10:13:10;;;;;;;38.92;18.27;;;8.60;99.90;;;;;;5077667;23;20229;-94
2023/03/09 10:15:20;;;;;;;42.90;19.48;;;8.70;99.90;;;;;;5083324;23;20173;-93
2023/03/09 10:17:29;;;;;;;38.58;18.73;;;9.00;99.90;;;;;;5052945;23;20158;-94
2023/03/09 10:19:57;;;;;;;42.95;20.30;;;9.10;99.90;;;;;;5101717;23;20616;-93
2023/03/09 10:22:14;;;;;;;45.08;20.55;;;9.20;99.90;;;;;;5110002;22;20214;-94
2023/03/09 10:25:12;;;;;;;40.45;19.33;;;9.30;99.90;;;;;;5128832;22;20144;-93
2023/03/09 10:27:31;;;;;;;42.80;20.55;;;9.30;99.90;;;;;;5104204;23;20244;-93
2023/03/09 10:30:11;;;;;;;44.20;20.25;;;9.40;99.90;;;;;;5076814;23;20233;-92
2023/03/09 10:32:22;;;;;;;40.55;20.00;;;9.50;99.90;;;;;;5058104;23;20632;-94
2023/03/09 10:34:29;;;;;;;40.72;20.67;;;9.80;99.90;;;;;;5054275;23;20169;-94
2023/03/09 10:36:50;;;;;;;41.35;20.42;;;10.00;99.90;;;;;;5107686;23;20241;-94
2023/03/09 10:39:01;;;;;;;40.75;19.77;;;10.20;99.90;;;;;;5057207;23;20226;-95
2023/03/09 10:41:17;;;;;;;43.40;21.42;;;10.40;99.90;;;;;;5059550;23;20166;-94
2023/03/09 10:43:35;;;;;;;44.85;21.20;;;10.50;99.90;;;;;;5081675;23;20157;-93
2023/03/09 10:45:36;;;;;;;37.33;19.95;;;10.70;99.90;;;;;;5052595;23;20166;-93
2023/03/09 10:47:56;;;;;;;37.72;20.17;;;10.80;99.90;;;;;;5054449;23;20158;-93
2023/03/09 10:50:11;;;;;;;37.17;19.17;;;10.90;99.90;;;;;;5078605;23;20189;-93
2023/03/09 10:52:21;;;;;;;39.75;19.83;;;10.90;99.90;;;;;;5052061;23;20174;-92
2023/03/09 10:54:49;;;;;;;36.97;18.48;;;10.90;99.90;;;;;;5052937;23;20186;-93
2023/03/09 10:57:28;;;;;;;38.95;19.45;;;10.80;99.90;;;;;;5084551;23;20156;-94
2023/03/09 11:00:01;;;;;;;38.53;20.20;;;10.70;99.90;;;;;;5085215;23;20196;-94
2023/03/09 11:03:13;;;;;;;36.80;18.70;;;10.70;99.90;;;;;;5085824;23;20177;-94
2023/03/09 11:17:53;;;;;;;40.78;18.95;;;10.70;99.90;;;;;;5080924;23;20192;-92
2023/03/09 11:20:49;;;;;;;42.88;19.98;;;10.90;99.90;;;;;;5077746;23;20241;-93
2023/03/09 11:23:13;;;;;;;40.03;20.10;;;11.20;99.90;;;;;;5079054;23;20145;-93
2023/03/09 11:26:12;;;;;;;40.70;18.67;;;11.10;99.90;;;;;;5059008;23;20244;-93
2023/03/09 11:28:37;;;;;;;42.25;18.83;;;11.10;99.90;;;;;;5034164;23;20143;-93
2023/03/09 11:30:53;;;;;;;42.28;19.90;;;11.00;99.90;;;;;;5051822;23;20202;-92
2023/03/09 11:33:12;;;;;;;39.90;19.48;;;11.00;99.90;;;;;;5030910;23;20163;-92
2023/03/09 11:35:31;;;;;;;46.83;19.85;;;11.00;99.90;;;;;;5036262;23;20143;-92
2023/03/09 11:38:05;;;;;;;42.08;18.25;;;11.20;99.90;;;;;;5017173;23;20191;-94
2023/03/09 11:40:49;;;;;;;35.88;15.57;;;11.50;99.90;;;;;;5035290;23;20147;-94
2023/03/09 11:42:56;;;;;;;25.70;12.45;;;11.20;99.90;;;;;;5037865;23;20152;-93
2023/03/09 11:45:19;;;;;;;25.55;9.95;;;11.20;99.90;;;;;;5059288;23;20188;-95
2023/03/09 11:48:17;;;;;;;20.27;7.40;;;11.20;99.90;;;;;;5061112;23;20138;-94
2023/03/09 11:50:35;;;;;;;17.92;7.40;;;11.20;99.90;;;;;;5076415;23;20193;-95
2023/03/09 11:52:54;;;;;;;21.90;7.75;;;11.30;99.90;;;;;;5039630;23;20146;-93
2023/03/09 11:55:38;;;;;;;33.38;8.43;;;11.30;99.90;;;;;;5066856;23;20153;-92
2023/03/09 11:57:49;;;;;;;32.97;11.90;;;11.40;99.90;;;;;;5066225;23;20146;-93
2023/03/09 12:00:03;;;;;;;36.83;12.27;;;11.50;99.90;;;;;;5044088;23;20146;-92
2023/03/09 12:03:28;;;;;;;27.50;10.30;;;11.50;99.90;;;;;;5057518;23;20174;-95
2023/03/09 12:06:07;;;;;;;32.88;7.40;;;11.60;99.90;;;;;;5058623;23;20197;-95
2023/03/09 12:08:40;;;;;;;22.85;6.60;;;11.70;99.90;;;;;;5036749;23;20170;-93
2023/03/09 12:11:02;;;;;;;30.63;7.85;;;11.90;99.90;;;;;;5028039;23;20178;-92
